Time;durP1;ratioP1;P1;durP2;ratioP2;P2;SDS_P1;SDS_P2;PMS_P1;PMS_P2;Temp;Humidity;BMP_temperature;BMP_pressure;BME280_temperature;BME280_humidity;BME280_pressure;Samples;Min_cycle;Max_cycle;Signal;HPM_P1;HPM_P2
2023/01/12 00:01:57;;;;;;;1.30;1.20;;;;;;;-9.95;64.44;100567.84;4937868;29;20743;-80
2023/01/12 00:04:29;;;;;;;1.40;1.30;;;;;;;-9.99;64.22;100581.13;4953233;29;20518;-81
2023/01/12 00:07:00;;;;;;;1.30;1.20;;;;;;;-9.93;64.72;100584.25;4954304;28;20077;-80
2023/01/12 00:09:27;;;;;;;1.48;1.38;;;;;;;-9.92;64.80;100579.91;4954523;29;20049;-79
2023/01/12 00:11:57;;;;;;;1.50;1.40;;;;;;;-9.89;64.55;100598.03;4954575;29;20083;-80
2023/01/12 00:14:26;;;;;;;1.40;1.30;;;;;;;-9.84;64.20;100596.03;4937022;29;20054;-80
2023/01/12 00:16:53;;;;;;;1.40;1.30;;;;;;;-9.87;64.46;100583.97;4954194;29;20047;-79
2023/01/12 00:19:21;;;;;;;1.58;1.48;;;;;;;-9.88;64.51;100573.59;4953973;29;20054;-80
2023/01/12 00:24:28;;;;;;;1.50;1.40;;;;;;;-9.88;64.58;100592.72;4953886;29;20406;-81
2023/01/12 00:26:56;;;;;;;1.35;1.25;;;;;;;-9.84;64.74;100588.19;4954358;29;20046;-80
2023/01/12 00:29:24;;;;;;;1.40;1.30;;;;;;;-9.83;64.63;100595.09;4937235;29;20058;-79
2023/01/12 00:31:53;;;;;;;1.50;1.40;;;;;;;-9.87;64.77;100577.91;4941897;29;20143;-79
2023/01/12 00:34:20;;;;;;;1.40;1.30;;;;;;;-9.92;64.79;100585.13;4935150;29;20054;-81
2023/01/12 00:36:49;;;;;;;1.30;1.20;;;;;;;-9.86;65.10;100590.03;4933660;29;20047;-79
2023/01/12 00:39:17;;;;;;;1.35;1.25;;;;;;;-9.85;64.99;100586.50;4917466;29;20503;-80
2023/01/12 00:47:16;;;;;;;1.40;1.30;;;;;;;-9.82;64.93;100578.53;4934235;29;20143;-80
2023/01/12 00:49:45;;;;;;;1.42;1.33;;;;;;;-9.84;65.10;100578.59;4934635;29;20090;-80
2023/01/12 00:52:15;;;;;;;1.40;1.30;;;;;;;-9.87;65.10;100557.00;4934613;29;20112;-80
2023/01/12 00:54:58;;;;;;;1.60;1.50;;;;;;;-9.92;65.48;100577.28;4934290;29;20467;-80
2023/01/12 00:57:30;;;;;;;1.38;1.27;;;;;;;-9.91;65.49;100558.06;4934923;29;20055;-81
2023/01/12 00:59:58;;;;;;;1.50;1.40;;;;;;;-9.99;65.50;100562.84;4935403;29;20058;-80
2023/01/12 01:02:27;;;;;;;1.50;1.40;;;;;;;-10.01;65.73;100565.50;4918771;29;20142;-80
2023/01/12 01:04:55;;;;;;;1.60;1.50;;;;;;;-10.01;65.77;100562.06;4936939;29;20052;-80
2023/01/12 01:07:25;;;;;;;1.20;1.15;;;;;;;-9.98;65.70;100569.75;4936245;29;20051;-80
2023/01/12 01:09:53;;;;;;;1.50;1.40;;;;;;;-9.98;65.90;100564.50;4936818;29;20055;-80
2023/01/12 01:12:20;;;;;;;1.40;1.30;;;;;;;-9.98;66.10;100593.25;4935403;29;20056;-80
2023/01/12 01:14:47;;;;;;;1.17;1.15;;;;;;;-9.94;65.91;100560.84;4936051;29;20063;-79
2023/01/12 01:17:17;;;;;;;1.30;1.20;;;;;;;-9.98;65.88;100567.97;4951829;29;20074;-81
2023/01/12 01:19:44;;;;;;;1.60;1.50;;;;;;;-9.95;66.00;100565.22;4919157;29;20052;-80
2023/01/12 01:22:11;;;;;;;1.40;1.30;;;;;;;-9.96;66.05;100581.81;4952203;29;20058;-82
2023/01/12 01:24:40;;;;;;;1.40;1.30;;;;;;;-9.93;66.03;100565.13;4953036;28;20066;-82
2023/01/12 01:27:07;;;;;;;1.40;1.30;;;;;;;-9.92;65.99;100564.22;4946703;29;20511;-82
2023/01/12 01:29:34;;;;;;;1.30;1.20;;;;;;;-9.93;66.09;100559.91;4933798;29;20047;-83
2023/01/12 01:32:02;;;;;;;1.60;1.50;;;;;;;-9.97;66.18;100554.00;4926354;29;20055;-82
2023/01/12 01:34:35;;;;;;;1.48;1.38;;;;;;;-9.99;65.97;100557.63;4935733;29;20681;-80
2023/01/12 01:37:02;;;;;;;1.50;1.40;;;;;;;-9.98;66.05;100551.47;4932405;29;20051;-82
2023/01/12 01:39:29;;;;;;;1.40;1.30;;;;;;;-9.98;66.03;100533.16;4930295;29;20697;-79
2023/01/12 01:41:56;;;;;;;1.50;1.40;;;;;;;-10.01;66.15;100535.94;4923209;29;20052;-80
2023/01/12 01:44:29;;;;;;;1.50;1.40;;;;;;;-9.99;66.31;100519.28;4950198;29;20043;-81
2023/01/12 01:47:19;;;;;;;1.30;1.20;;;;;;;-9.98;66.40;100534.00;4951994;29;20047;-80
2023/01/12 01:49:48;;;;;;;1.30;1.20;;;;;;;-9.96;66.55;100503.44;4904268;29;20051;-80
2023/01/12 01:52:25;;;;;;;1.40;1.30;;;;;;;-9.99;66.48;100529.72;4935570;29;20071;-81
2023/01/12 01:55:01;;;;;;;1.38;1.27;;;;;;;-9.96;66.69;100537.41;4952772;29;20090;-81
2023/01/12 01:57:49;;;;;;;1.33;1.23;;;;;;;-9.96;66.59;100534.78;4952435;29;20055;-81
2023/01/12 02:00:16;;;;;;;1.60;1.50;;;;;;;-10.00;66.67;100529.78;4950780;29;20458;-81
2023/01/12 02:02:46;;;;;;;1.23;1.20;;;;;;;-10.03;66.17;100492.44;4935360;29;20043;-81
2023/01/12 02:05:19;;;;;;;1.40;1.30;;;;;;;-10.07;66.09;100513.59;4919291;29;20051;-81
2023/01/12 02:07:48;;;;;;;1.58;1.48;;;;;;;-10.05;66.39;100523.03;4935343;29;20058;-81
2023/01/12 02:10:15;;;;;;;1.45;1.35;;;;;;;-10.04;66.67;100518.66;4952029;29;20470;-81
2023/01/12 02:19:23;;;;;;;1.40;1.30;;;;;;;-10.00;66.23;100521.94;4937885;29;20055;-80
2023/01/12 02:22:08;;;;;;;1.40;1.30;;;;;;;-9.96;66.30;100492.16;4900200;29;20127;-81
2023/01/12 02:24:41;;;;;;;1.40;1.30;;;;;;;-9.95;66.36;100519.94;4861842;29;20068;-81
2023/01/12 02:27:29;;;;;;;1.40;1.30;;;;;;;-9.87;66.33;100512.59;4884711;29;20597;-81
2023/01/12 02:30:15;;;;;;;1.50;1.40;;;;;;;-9.81;66.58;100533.19;4903126;29;20048;-81
2023/01/12 02:33:08;;;;;;;1.10;1.10;;;;;;;-9.80;66.63;100508.72;4915650;29;20622;-80
2023/01/12 02:35:55;;;;;;;1.35;1.25;;;;;;;-9.80;66.36;100500.88;4899667;29;20115;-81
2023/01/12 02:38:28;;;;;;;1.40;1.30;;;;;;;-9.83;66.43;100496.66;4908376;29;20465;-84
2023/01/12 02:44:29;;;;;;;1.35;1.25;;;;;;;-9.96;66.67;100508.66;4898879;29;20570;-80
2023/01/12 02:47:00;;;;;;;1.40;1.30;;;;;;;-9.91;66.54;100501.44;4896296;29;20048;-80
2023/01/12 02:49:30;;;;;;;1.63;1.52;;;;;;;-9.89;66.53;100507.44;4896120;29;20578;-80
2023/01/12 02:52:02;;;;;;;1.40;1.30;;;;;;;-9.89;66.73;100497.00;4898871;29;20052;-80
2023/01/12 02:54:30;;;;;;;1.48;1.38;;;;;;;-9.88;66.39;100506.50;4894353;29;20631;-81
2023/01/12 02:57:02;;;;;;;1.52;1.42;;;;;;;-9.90;66.19;100499.66;4875712;29;20052;-79
2023/01/12 02:59:32;;;;;;;1.38;1.27;;;;;;;-9.87;66.37;100516.06;4935038;29;20075;-80
2023/01/12 03:02:03;;;;;;;1.50;1.40;;;;;;;-9.87;66.45;100512.59;4938323;29;20059;-81
2023/01/12 03:04:33;;;;;;;1.33;1.23;;;;;;;-9.90;66.58;100490.09;4955470;29;20047;-82
2023/01/12 03:07:00;;;;;;;1.52;1.42;;;;;;;-9.87;66.69;100497.75;4955623;29;20051;-81
2023/01/12 03:09:32;;;;;;;1.50;1.40;;;;;;;-9.89;66.89;100473.47;4938181;29;20489;-80
2023/01/12 03:12:06;;;;;;;1.48;1.38;;;;;;;-9.87;66.85;100503.00;4922619;29;20122;-82
2023/01/12 03:14:38;;;;;;;1.40;1.30;;;;;;;-9.97;66.91;100462.59;4935902;29;20051;-82
2023/01/12 03:17:12;;;;;;;1.35;1.25;;;;;;;-9.92;66.53;100488.47;4953584;29;20059;-82
2023/01/12 03:19:41;;;;;;;1.50;1.40;;;;;;;-9.81;66.91;100507.06;4935700;29;20062;-82
2023/01/12 03:22:10;;;;;;;1.50;1.40;;;;;;;-9.88;66.96;100490.00;4929388;29;20051;-82
2023/01/12 03:24:42;;;;;;;1.40;1.30;;;;;;;-9.88;67.20;100490.00;4934612;29;20562;-84
2023/01/12 03:27:17;;;;;;;1.52;1.42;;;;;;;-9.82;67.50;100500.16;4919152;29;20099;-83
2023/01/12 03:30:01;;;;;;;1.58;1.48;;;;;;;-9.82;67.00;100500.16;4935074;29;20052;-82
2023/01/12 03:32:31;;;;;;;1.50;1.40;;;;;;;-9.80;67.08;100506.13;4926081;29;20054;-81
2023/01/12 03:34:59;;;;;;;1.40;1.30;;;;;;;-9.75;67.14;100522.41;4928610;29;20557;-82
2023/01/12 03:37:30;;;;;;;1.40;1.30;;;;;;;-9.78;67.10;100512.13;4911282;29;20055;-82
2023/01/12 03:40:21;;;;;;;1.50;1.40;;;;;;;-9.78;66.98;100493.81;4936691;29;20483;-82
2023/01/12 03:43:20;;;;;;;1.40;1.30;;;;;;;-9.85;66.93;100489.81;4931317;29;20079;-83
2023/01/12 03:46:08;;;;;;;1.40;1.30;;;;;;;-9.93;66.76;100492.00;4874966;29;20049;-82
2023/01/12 03:48:43;;;;;;;1.30;1.20;;;;;;;-9.98;67.32;100496.59;4877212;29;20057;-85
2023/01/12 03:51:24;;;;;;;1.52;1.42;;;;;;;-9.91;67.12;100503.22;4861354;29;20136;-80
2023/01/12 03:53:51;;;;;;;1.48;1.38;;;;;;;-9.94;67.19;100504.22;4861245;29;20057;-83
2023/01/12 03:56:20;;;;;;;1.23;1.20;;;;;;;-9.95;67.24;100510.38;4888266;29;20136;-81
2023/01/12 03:58:48;;;;;;;1.40;1.30;;;;;;;-9.98;67.19;100505.28;4869697;29;20053;-82
2023/01/12 04:01:15;;;;;;;1.40;1.30;;;;;;;-10.00;67.02;100490.59;4876070;29;20484;-82
2023/01/12 04:03:43;;;;;;;1.27;1.20;;;;;;;-10.00;67.55;100488.00;4875917;29;20183;-81
2023/01/12 04:06:10;;;;;;;1.30;1.20;;;;;;;-9.96;67.35;100466.88;4876204;29;20141;-82
2023/01/12 04:08:40;;;;;;;1.52;1.42;;;;;;;-9.96;67.55;100468.66;4876219;29;20442;-83
2023/01/12 04:13:53;;;;;;;1.50;1.40;;;;;;;-10.04;67.48;100472.47;4876158;29;20844;-82
2023/01/12 04:16:20;;;;;;;1.45;1.35;;;;;;;-10.04;67.72;100479.47;4867409;29;20061;-81
2023/01/12 04:18:50;;;;;;;1.40;1.30;;;;;;;-10.04;68.06;100453.38;4857999;29;20056;-83
2023/01/12 04:24:04;;;;;;;1.50;1.40;;;;;;;-10.18;67.59;100441.00;4889104;29;20056;-83
2023/01/12 04:26:31;;;;;;;1.30;1.20;;;;;;;-10.16;67.73;100467.88;4899635;29;20107;-81
2023/01/12 04:28:58;;;;;;;1.50;1.40;;;;;;;-10.11;67.99;100463.25;4926572;29;20174;-82
2023/01/12 04:31:33;;;;;;;1.10;1.10;;;;;;;-10.05;67.95;100477.78;4918275;29;20048;-82
2023/01/12 04:34:00;;;;;;;1.42;1.33;;;;;;;-10.08;67.88;100470.94;4934754;29;20635;-82
2023/01/12 04:36:32;;;;;;;1.40;1.30;;;;;;;-10.10;67.82;100469.31;4935666;29;20059;-83
2023/01/12 04:39:02;;;;;;;1.30;1.20;;;;;;;-10.12;67.73;100474.66;4934805;29;20054;-82
2023/01/12 04:41:30;;;;;;;1.50;1.40;;;;;;;-10.14;67.72;100473.88;4933875;29;20048;-84
2023/01/12 04:43:59;;;;;;;1.50;1.40;;;;;;;-10.16;67.66;100465.25;4911308;29;20055;-83
2023/01/12 04:46:26;;;;;;;1.17;1.15;;;;;;;-10.22;67.94;100490.84;4934890;29;20086;-82
2023/01/12 04:48:53;;;;;;;1.40;1.30;;;;;;;-10.19;67.90;100472.41;4918620;29;20075;-82
2023/01/12 04:51:26;;;;;;;1.50;1.40;;;;;;;-10.26;67.68;100464.88;4935928;29;20054;-83
2023/01/12 04:53:53;;;;;;;1.60;1.50;;;;;;;-10.22;67.84;100470.81;4935552;29;20062;-82
2023/01/12 04:56:20;;;;;;;1.27;1.20;;;;;;;-10.23;67.89;100469.09;4935393;29;20155;-82
2023/01/12 04:58:55;;;;;;;1.42;1.33;;;;;;;-10.29;68.17;100451.19;4935851;29;20075;-84
2023/01/12 05:01:22;;;;;;;1.40;1.30;;;;;;;-10.22;67.92;100457.75;4934173;29;20467;-81
2023/01/12 05:03:49;;;;;;;1.50;1.40;;;;;;;-10.23;67.90;100456.03;4933002;29;20502;-82
2023/01/12 05:06:16;;;;;;;1.48;1.38;;;;;;;-10.19;68.20;100467.19;4917403;29;20047;-82
2023/01/12 05:11:29;;;;;;;1.15;1.15;;;;;;;-10.15;68.21;100461.75;4933419;29;20048;-82
2023/01/12 05:13:57;;;;;;;1.42;1.33;;;;;;;-10.18;67.99;100448.81;4914503;29;20056;-83
2023/01/12 05:16:33;;;;;;;1.40;1.30;;;;;;;-10.20;68.06;100482.03;4898959;29;20044;-83
2023/01/12 05:19:03;;;;;;;1.48;1.38;;;;;;;-10.26;67.86;100458.81;4882432;29;20054;-83
2023/01/12 05:21:30;;;;;;;1.50;1.40;;;;;;;-10.23;67.92;100473.47;4914696;29;20139;-82
2023/01/12 05:23:57;;;;;;;1.40;1.30;;;;;;;-10.30;68.13;100479.06;4915203;29;20156;-82
2023/01/12 05:26:24;;;;;;;1.60;1.50;;;;;;;-10.26;68.33;100482.31;4933137;29;20560;-81
2023/01/12 05:28:51;;;;;;;1.20;1.15;;;;;;;-10.26;68.40;100495.38;4936774;29;20047;-83
2023/01/12 05:31:18;;;;;;;1.40;1.30;;;;;;;-10.26;68.33;100483.16;4940056;29;20052;-83
2023/01/12 05:33:52;;;;;;;1.50;1.40;;;;;;;-10.24;68.30;100472.66;4928039;29;20048;-83
2023/01/12 05:36:19;;;;;;;1.35;1.25;;;;;;;-10.23;68.02;100469.09;4905164;29;20051;-82
2023/01/12 05:38:46;;;;;;;1.50;1.40;;;;;;;-10.21;68.57;100471.66;4584019;29;10000455;-81
2023/01/12 05:41:13;;;;;;;1.50;1.40;;;;;;;-10.26;68.53;100484.91;4933102;29;20055;-81
2023/01/12 05:43:50;;;;;;;1.48;1.38;;;;;;;-10.36;68.71;100448.00;4933364;29;20052;-81
2023/01/12 05:46:22;;;;;;;1.30;1.20;;;;;;;-10.58;68.78;100463.91;4914020;29;20074;-83
2023/01/12 05:48:50;;;;;;;1.27;1.20;;;;;;;-10.68;69.30;100478.31;4921753;29;20143;-82
2023/01/12 05:51:19;;;;;;;1.40;1.30;;;;;;;-10.83;69.38;100468.59;4916963;29;20079;-82
2023/01/12 05:53:47;;;;;;;1.50;1.40;;;;;;;-10.94;69.51;100482.13;4910887;29;20640;-82
2023/01/12 05:56:16;;;;;;;1.40;1.30;;;;;;;-11.02;70.00;100481.66;4919518;29;20048;-81
2023/01/12 05:58:48;;;;;;;1.50;1.40;;;;;;;-11.14;70.13;100454.38;4914063;29;20095;-82
2023/01/12 06:01:16;;;;;;;1.55;1.45;;;;;;;-11.15;70.27;100468.34;4924537;29;20455;-82
2023/01/12 06:03:51;;;;;;;1.40;1.30;;;;;;;-11.21;70.36;100458.22;4921952;29;20126;-83
2023/01/12 06:06:19;;;;;;;1.70;1.60;;;;;;;-11.27;70.25;100437.63;4926722;29;20062;-82
2023/01/12 06:08:51;;;;;;;1.40;1.30;;;;;;;-11.32;70.18;100479.53;4932536;29;20120;-86
2023/01/12 06:14:15;;;;;;;1.40;1.30;;;;;;;-11.36;70.44;100475.38;4884931;29;20594;-89
2023/01/12 06:16:43;;;;;;;1.40;1.30;;;;;;;-11.43;70.62;100468.75;4881269;29;20081;-86
2023/01/12 06:19:13;;;;;;;1.50;1.40;;;;;;;-11.48;70.62;100468.97;4864978;29;20057;-86
2023/01/12 06:21:40;;;;;;;1.70;1.60;;;;;;;-11.50;70.76;100462.13;4868675;29;20052;-83
2023/01/12 06:24:08;;;;;;;1.50;1.40;;;;;;;-11.49;71.02;100469.88;4871988;29;20570;-82
2023/01/12 06:26:35;;;;;;;1.50;1.40;;;;;;;-11.46;71.03;100464.53;4868689;29;20049;-83
2023/01/12 06:29:04;;;;;;;1.60;1.50;;;;;;;-11.46;70.78;100474.09;4860688;29;20146;-82
2023/01/12 06:31:32;;;;;;;1.50;1.40;;;;;;;-11.46;71.00;100451.50;4860911;29;20166;-82
2023/01/12 06:34:02;;;;;;;1.80;1.70;;;;;;;-11.48;71.21;100468.97;4859099;29;20098;-83
2023/01/12 06:36:32;;;;;;;1.60;1.50;;;;;;;-11.52;71.12;100470.00;4853671;29;20053;-84
2023/01/12 06:38:59;;;;;;;1.48;1.38;;;;;;;-11.46;71.17;100466.28;4846474;29;20060;-83
2023/01/12 06:44:12;;;;;;;1.50;1.40;;;;;;;-11.43;71.18;100463.53;4865845;29;20053;-81
2023/01/12 06:46:39;;;;;;;1.50;1.40;;;;;;;-11.44;71.28;100462.69;4854509;29;20133;-81
2023/01/12 06:49:09;;;;;;;1.60;1.50;;;;;;;-11.40;71.04;100459.03;4869839;29;20116;-81
2023/01/12 06:51:50;;;;;;;1.52;1.42;;;;;;;-11.31;71.37;100467.38;4906086;29;20063;-80
2023/01/12 06:54:17;;;;;;;1.60;1.50;;;;;;;-11.20;70.91;100480.75;4921124;29;20083;-81
2023/01/12 06:56:45;;;;;;;1.60;1.50;;;;;;;-11.24;70.82;100459.19;4920655;29;20040;-83
2023/01/12 06:59:12;;;;;;;1.60;1.50;;;;;;;-11.17;70.80;100478.81;4912199;29;20139;-82
2023/01/12 07:01:39;;;;;;;1.60;1.50;;;;;;;-11.13;70.75;100462.13;4923712;29;20146;-81
2023/01/12 07:04:07;;;;;;;1.50;1.40;;;;;;;-11.08;70.62;100456.72;4909069;29;20395;-81
2023/01/12 07:06:34;;;;;;;1.48;1.38;;;;;;;-11.06;70.65;100454.00;4921126;29;20458;-82
2023/01/12 07:09:01;;;;;;;1.60;1.50;;;;;;;-11.10;70.70;100445.50;4919583;29;20143;-82
2023/01/12 07:11:28;;;;;;;1.55;1.45;;;;;;;-11.08;70.58;100443.69;4900891;29;20056;-81
2023/01/12 07:13:55;;;;;;;1.60;1.50;;;;;;;-11.09;70.78;100454.16;4910629;29;20089;-81
2023/01/12 07:16:23;;;;;;;1.60;1.50;;;;;;;-10.99;70.88;100451.03;4922533;29;20051;-82
2023/01/12 07:18:50;;;;;;;1.70;1.60;;;;;;;-11.01;70.63;100445.09;4930537;29;20054;-82
2023/01/12 07:21:18;;;;;;;1.60;1.50;;;;;;;-10.99;70.65;100438.00;4914785;29;20048;-81
2023/01/12 07:23:45;;;;;;;1.60;1.50;;;;;;;-10.80;70.46;100434.53;4931866;29;20056;-82
2023/01/12 07:26:12;;;;;;;1.55;1.45;;;;;;;-10.73;70.39;100435.94;4906918;29;20052;-80
2023/01/12 07:28:40;;;;;;;1.50;1.40;;;;;;;-10.59;70.18;100422.22;4929303;29;20147;-82
2023/01/12 07:31:08;;;;;;;1.50;1.40;;;;;;;-10.44;69.79;100407.56;4914680;29;20147;-80
2023/01/12 07:33:36;;;;;;;1.40;1.30;;;;;;;-10.35;69.33;100433.22;4927236;29;20052;-80
2023/01/12 07:36:04;;;;;;;1.52;1.42;;;;;;;-10.30;69.01;100426.00;4907707;29;20166;-80
2023/01/12 07:38:32;;;;;;;1.63;1.52;;;;;;;-10.26;68.63;100417.03;4930443;29;20059;-83
2023/01/12 07:42:21;;;;;;;1.60;1.50;;;;;;;-9.99;68.84;100434.84;4917687;29;20142;-84
2023/01/12 07:43:56;;;;;;;1.70;1.60;;;;;;;-9.86;68.04;100433.28;4917516;29;20063;-83
2023/01/12 07:46:24;;;;;;;1.63;1.52;;;;;;;-9.94;67.80;100438.91;4933418;29;20063;-81
2023/01/12 07:48:51;;;;;;;1.48;1.38;;;;;;;-9.81;67.70;100413.81;4932107;29;20048;-83
2023/01/12 07:51:18;;;;;;;1.80;1.70;;;;;;;-9.80;67.31;100404.22;4925023;29;20521;-82
2023/01/12 07:53:46;;;;;;;1.58;1.48;;;;;;;-9.61;67.06;100419.78;4928016;29;20474;-83
2023/01/12 07:56:18;;;;;;;1.65;1.55;;;;;;;-9.35;66.68;100420.16;4895677;29;20515;-82
2023/01/12 07:58:48;;;;;;;1.50;1.40;;;;;;;-9.21;66.40;100413.25;4925204;29;20055;-83
2023/01/12 08:01:15;;;;;;;1.50;1.40;;;;;;;-9.05;65.91;100405.38;4930512;29;20051;-83
2023/01/12 08:03:43;;;;;;;1.60;1.50;;;;;;;-9.06;65.01;100406.34;4934382;29;20365;-82
2023/01/12 08:06:10;;;;;;;1.70;1.60;;;;;;;-9.07;65.42;100411.63;4930204;29;20530;-83
2023/01/12 08:08:37;;;;;;;1.70;1.60;;;;;;;-8.98;64.72;100409.34;4931986;29;20079;-82
2023/01/12 08:11:07;;;;;;;1.50;1.40;;;;;;;-9.25;65.37;100392.56;4931298;29;20082;-85
2023/01/12 08:13:39;;;;;;;1.70;1.60;;;;;;;-8.82;65.10;100413.72;4935371;29;20858;-81
2023/01/12 08:16:19;;;;;;;1.67;1.58;;;;;;;-8.38;64.16;100416.41;4933218;29;20056;-82
2023/01/12 08:18:55;;;;;;;1.90;1.80;;;;;;;-8.58;63.86;100442.88;4912015;29;20072;-82
2023/01/12 08:21:26;;;;;;;1.52;1.42;;;;;;;-8.61;63.78;100414.28;4923053;29;20052;-83
2023/01/12 08:23:58;;;;;;;1.40;1.30;;;;;;;-8.72;64.39;100420.13;4920219;29;20052;-82
2023/01/12 08:26:35;;;;;;;1.60;1.50;;;;;;;-8.68;63.49;100412.94;4917909;29;20639;-83
2023/01/12 08:29:09;;;;;;;1.58;1.48;;;;;;;-8.87;64.16;100408.75;4915279;29;20073;-86
2023/01/12 08:31:45;;;;;;;1.70;1.60;;;;;;;-8.99;64.67;100402.44;4916015;29;20052;-83
2023/01/12 08:34:13;;;;;;;1.73;1.63;;;;;;;-8.61;64.41;100395.94;4886324;29;20073;-84
2023/01/12 08:36:41;;;;;;;1.50;1.40;;;;;;;-8.92;64.63;100392.47;4933738;29;20415;-83
2023/01/12 08:39:10;;;;;;;1.73;1.63;;;;;;;-8.93;64.51;100410.88;4895513;29;20054;-81
2023/01/12 08:41:43;;;;;;;1.60;1.50;;;;;;;-8.78;63.66;100389.91;4926352;29;20540;-82
2023/01/12 08:44:10;;;;;;;1.58;1.48;;;;;;;-9.08;64.79;100396.88;4890411;29;20525;-81
2023/01/12 08:46:47;;;;;;;1.60;1.50;;;;;;;-9.19;65.53;100400.94;4907942;29;20080;-82
2023/01/12 08:49:16;;;;;;;1.70;1.60;;;;;;;-8.48;64.10;100390.84;4920965;29;20051;-80
2023/01/12 08:51:44;;;;;;;1.70;1.60;;;;;;;-8.00;63.48;100360.91;4905893;29;20106;-81
2023/01/12 08:54:14;;;;;;;1.65;1.55;;;;;;;-7.87;62.46;100379.34;4913308;29;20078;-81
2023/01/12 08:56:42;;;;;;;1.80;1.70;;;;;;;-8.40;62.30;100318.78;4916434;29;20060;-81
2023/01/12 08:59:09;;;;;;;1.50;1.40;;;;;;;-8.04;61.85;100354.16;4928017;29;20051;-83
2023/01/12 09:01:37;;;;;;;1.60;1.50;;;;;;;-7.57;61.29;100374.00;4932315;29;20055;-82
2023/01/12 09:04:05;;;;;;;1.63;1.52;;;;;;;-7.30;61.18;100370.56;4916377;29;20459;-82
2023/01/12 09:06:39;;;;;;;1.70;1.60;;;;;;;-6.76;59.54;100360.94;4915888;29;20063;-82
2023/01/12 09:09:09;;;;;;;1.83;1.73;;;;;;;-6.26;58.75;100355.00;4914299;29;20047;-83
2023/01/12 09:11:38;;;;;;;1.45;1.35;;;;;;;-6.29;57.58;100350.81;4933746;29;20142;-82
2023/01/12 09:14:06;;;;;;;1.50;1.40;;;;;;;-6.29;57.53;100353.44;4916444;29;20146;-82
2023/01/12 09:16:33;;;;;;;1.40;1.30;;;;;;;-6.70;57.50;100346.53;4932743;29;20087;-82
2023/01/12 09:19:03;;;;;;;1.40;1.30;;;;;;;-7.35;58.28;100351.66;4931125;29;20044;-83
2023/01/12 09:21:31;;;;;;;1.70;1.60;;;;;;;-7.48;60.06;100343.72;4926583;29;20078;-82
2023/01/12 09:23:59;;;;;;;1.70;1.60;;;;;;;-6.93;59.52;100341.97;4916375;29;20056;-82
2023/01/12 09:26:32;;;;;;;1.77;1.67;;;;;;;-6.51;58.66;100342.69;4898754;29;20562;-83
2023/01/12 09:29:01;;;;;;;1.70;1.60;;;;;;;-6.77;57.94;100319.84;4904903;29;20052;-82
2023/01/12 09:31:31;;;;;;;1.30;1.20;;;;;;;-6.86;57.71;100312.59;4932235;29;20044;-83
2023/01/12 09:33:58;;;;;;;1.60;1.50;;;;;;;-6.51;58.00;100306.75;4916626;29;20114;-81
2023/01/12 09:36:31;;;;;;;1.15;1.15;;;;;;;-5.98;57.05;100309.28;4916412;29;20566;-82
2023/01/12 09:39:01;;;;;;;1.90;1.80;;;;;;;-5.50;56.16;100317.25;4928477;29;20075;-83
2023/01/12 09:47:48;;;;;;;1.50;1.40;;;;;;;-4.64;53.64;100313.59;4924912;29;20062;-85
2023/01/12 09:50:25;;;;;;;1.67;1.58;;;;;;;-4.26;53.02;100312.50;4933877;29;20054;-81
2023/01/12 09:53:06;;;;;;;1.70;1.60;;;;;;;-3.96;52.17;100286.41;4918091;29;20512;-80
2023/01/12 09:56:14;;;;;;;1.20;1.20;;;;;;;-3.95;51.63;100310.97;4937969;29;20066;-83
2023/01/12 09:59:06;;;;;;;1.50;1.40;;;;;;;-3.45;51.20;100300.03;4938487;29;20043;-82
2023/01/12 10:01:35;;;;;;;1.20;1.20;;;;;;;-3.44;50.19;100294.63;4921242;29;20043;-83
2023/01/12 10:04:07;;;;;;;1.40;1.30;;;;;;;-3.23;49.39;100299.97;4936283;29;20711;-84
2023/01/12 10:06:35;;;;;;;1.20;1.20;;;;;;;-3.41;49.53;100289.09;4929808;29;20605;-81
2023/01/12 10:09:04;;;;;;;1.10;1.10;;;;;;;-3.52;49.68;100302.31;4916592;29;20055;-84
2023/01/12 10:12:03;;;;;;;1.10;1.10;;;;;;;-3.59;49.57;100301.16;4924461;29;20052;-83
2023/01/12 10:14:56;;;;;;;1.50;1.40;;;;;;;-3.17;49.23;100291.56;4918887;29;20578;-85
2023/01/12 10:17:32;;;;;;;1.45;1.35;;;;;;;-2.85;48.05;100288.91;4923151;29;20175;-83
2023/01/12 10:20:34;;;;;;;1.00;1.00;;;;;;;-3.30;48.27;100296.16;4912378;29;20563;-83
2023/01/12 10:23:07;;;;;;;1.20;1.20;;;;;;;-2.98;48.51;100290.06;4912803;29;20059;-83
2023/01/12 10:25:49;;;;;;;1.10;1.10;;;;;;;-2.72;47.77;100283.44;4930198;29;20055;-83
2023/01/12 10:28:22;;;;;;;1.10;1.10;;;;;;;-2.68;47.62;100266.38;4914015;29;20055;-84
2023/01/12 10:30:50;;;;;;;1.20;1.17;;;;;;;-2.72;47.58;100278.16;4937064;29;20146;-83
2023/01/12 10:33:26;;;;;;;1.17;1.17;;;;;;;-2.35;47.17;100276.91;4934149;29;20571;-81
2023/01/12 10:36:14;;;;;;;1.10;1.10;;;;;;;-1.94;46.93;100253.97;4935932;29;20151;-84
2023/01/12 10:38:58;;;;;;;1.33;1.23;;;;;;;-1.60;45.66;100278.31;4934991;29;20089;-84
2023/01/12 10:41:26;;;;;;;1.45;1.35;;;;;;;-1.96;45.83;100262.03;4925998;29;20115;-82
2023/01/12 10:43:57;;;;;;;1.10;1.10;;;;;;;-1.64;46.08;100261.88;4911638;29;20105;-83
2023/01/12 10:46:30;;;;;;;1.10;1.10;;;;;;;-2.07;45.54;100249.75;4915539;29;20510;-81
2023/01/12 10:49:33;;;;;;;0.90;0.90;;;;;;;-2.09;46.21;100259.63;4930731;29;20044;-84
2023/01/12 10:52:09;;;;;;;1.52;1.42;;;;;;;-2.34;45.58;100252.13;4843539;29;20106;-86
2023/01/12 10:54:40;;;;;;;1.13;1.13;;;;;;;-2.62;46.43;100255.28;4858022;29;20046;-84
2023/01/12 10:57:20;;;;;;;1.20;1.20;;;;;;;-1.97;45.74;100237.41;4840700;29;20156;-83
2023/01/12 10:59:56;;;;;;;1.17;1.15;;;;;;;-2.16;45.31;100239.94;4842951;29;20066;-84
2023/01/12 11:02:27;;;;;;;1.00;1.00;;;;;;;-2.01;45.05;100221.91;4856202;29;20474;-82
2023/01/12 11:04:54;;;;;;;1.10;1.10;;;;;;;-2.42;45.64;100245.66;4847188;29;20057;-82
2023/01/12 11:07:27;;;;;;;1.35;1.25;;;;;;;-1.96;45.63;100243.50;4850775;29;20460;-83
2023/01/12 11:10:16;;;;;;;1.08;1.08;;;;;;;-1.51;44.82;100235.16;4858022;29;20049;-82
2023/01/12 11:12:55;;;;;;;1.10;1.10;;;;;;;-1.67;44.59;100237.47;4858049;29;20053;-83
2023/01/12 11:15:27;;;;;;;1.10;1.10;;;;;;;-1.42;44.63;100233.47;4856729;29;20064;-82
2023/01/12 11:18:00;;;;;;;1.10;1.10;;;;;;;-1.99;44.82;100238.50;4851296;29;20064;-82
2023/01/12 11:20:29;;;;;;;;;;;;;;;-1.80;44.74;100220.06;4846668;29;20058;-82
2023/01/12 11:23:02;;;;;;;1.05;1.05;;;;;;;-2.23;45.30;100223.78;4840077;29;19928;-83
2023/01/12 11:25:33;;;;;;;1.08;1.08;;;;;;;-2.58;46.03;100232.09;4831121;29;20079;-82
2023/01/12 11:28:09;;;;;;;1.00;1.00;;;;;;;-2.43;45.59;100206.13;4914507;29;20052;-83
2023/01/12 11:30:52;;;;;;;1.05;1.05;;;;;;;-2.40;45.84;100204.09;4928362;29;20055;-80
2023/01/12 11:33:20;;;;;;;1.30;1.20;;;;;;;-2.47;45.60;100194.16;4888054;29;20488;-84
2023/01/12 11:35:58;;;;;;;1.25;1.20;;;;;;;-2.70;46.13;100215.47;4926311;29;20135;-84
2023/01/12 11:38:38;;;;;;;1.08;1.08;;;;;;;-2.66;46.30;100226.59;4922204;29;20127;-81
2023/01/12 11:41:34;;;;;;;1.00;1.00;;;;;;;-2.21;45.75;100208.59;4925229;29;20080;-82
2023/01/12 11:44:15;;;;;;;1.00;1.00;;;;;;;-1.79;45.22;100210.28;4907752;29;20062;-82
2023/01/12 11:46:45;;;;;;;1.00;1.00;;;;;;;-2.12;45.55;100209.63;4909303;29;20051;-83
2023/01/12 11:49:31;;;;;;;1.30;1.20;;;;;;;-1.78;45.04;100212.78;4924598;29;20080;-81
2023/01/12 11:52:01;;;;;;;1.00;1.00;;;;;;;-2.29;45.11;100197.84;4929605;29;20055;-80
2023/01/12 11:54:30;;;;;;;1.42;1.33;;;;;;;-2.22;45.70;100206.09;4913117;29;20051;-81
2023/01/12 11:57:03;;;;;;;1.17;1.17;;;;;;;-1.98;45.41;100206.59;4932618;29;20166;-82
2023/01/12 12:00:02;;;;;;;1.10;1.10;;;;;;;-1.72;44.68;100213.22;4922322;29;20079;-81
2023/01/12 12:03:05;;;;;;;1.35;1.25;;;;;;;-2.50;45.90;100211.13;4912914;29;20055;-82
2023/01/12 12:05:36;;;;;;;;;;;;;;;-2.72;46.43;100217.38;4926898;29;20062;-81
2023/01/12 12:08:15;;;;;;;1.20;1.17;;;;;;;-2.93;46.37;100195.44;4896741;29;20122;-82
2023/01/12 12:10:55;;;;;;;1.02;1.02;;;;;;;-3.17;47.39;100206.22;4917992;29;20142;-80
2023/01/12 12:13:31;;;;;;;0.82;0.82;;;;;;;-3.31;47.74;100215.28;4931022;29;20056;-84
2023/01/12 12:16:26;;;;;;;0.82;0.82;;;;;;;-4.18;48.92;100187.06;4919968;29;20043;-86
2023/01/12 12:18:53;;;;;;;0.70;0.70;;;;;;;-5.36;51.32;100200.50;4916451;29;20119;-85
2023/01/12 12:21:47;;;;;;;0.75;0.75;;;;;;;-6.09;53.70;100194.38;4914456;29;20055;-84
2023/01/12 12:24:45;;;;;;;0.80;0.80;;;;;;;-6.56;55.05;100204.66;4900673;29;20491;-88